createdAt,value
2022-08-03T00:00:36.278Z,1.35
2022-08-03T00:03:04.653Z,1.98
2022-08-03T00:05:34.009Z,2.75
2022-08-03T00:08:02.501Z,1.60
2022-08-03T00:10:32.213Z,2.17
2022-08-03T00:13:00.498Z,2.30
2022-08-03T00:15:28.848Z,1.90
2022-08-03T00:17:57.196Z,3.88
2022-08-03T00:20:25.815Z,2.38
2022-08-03T00:22:54.213Z,2.30
2022-08-03T00:25:22.635Z,1.73
2022-08-03T00:27:52.424Z,2.00
2022-08-03T00:30:20.821Z,2.42
2022-08-03T00:32:49.607Z,1.58
2022-08-03T00:35:36.758Z,1.92
2022-08-03T00:38:05.652Z,1.70
2022-08-03T00:40:34.472Z,1.63
2022-08-03T00:43:08.219Z,3.70
2022-08-03T00:45:41.326Z,1.50
2022-08-03T00:48:19.803Z,1.88
2022-08-03T00:51:00.612Z,2.08
2022-08-03T00:53:29.435Z,1.77
2022-08-03T00:55:57.774Z,3.20
2022-08-03T00:58:27.512Z,6.75
2022-08-03T01:00:55.903Z,1.50
2022-08-03T01:03:24.296Z,2.28
2022-08-03T01:06:00.645Z,2.47
2022-08-03T01:08:38.660Z,2.22
2022-08-03T01:11:13.741Z,2.65
2022-08-03T01:14:03.863Z,2.55
2022-08-03T01:16:50.848Z,1.48
2022-08-03T01:19:37.740Z,3.08
2022-08-03T01:22:38.683Z,2.38
2022-08-03T01:25:16.472Z,1.77
2022-08-03T01:27:58.479Z,5.68
2022-08-03T01:30:33.392Z,1.90
2022-08-03T01:33:06.040Z,2.03
2022-08-03T01:35:40.238Z,3.15
2022-08-03T01:38:13.503Z,2.88
2022-08-03T01:40:44.556Z,2.25
2022-08-03T01:46:07.070Z,5.35
2022-08-03T01:48:37.722Z,1.77
2022-08-03T01:51:07.350Z,1.27
2022-08-03T01:53:36.388Z,5.22
2022-08-03T01:56:07.110Z,2.15
2022-08-03T01:58:37.872Z,3.25
2022-08-03T02:01:08.150Z,1.73
2022-08-03T02:04:00.102Z,1.70
2022-08-03T02:07:00.464Z,1.95
2022-08-03T02:11:52.392Z,5.38
2022-08-03T02:14:22.521Z,3.42
2022-08-03T02:16:52.854Z,3.67
2022-08-03T02:19:21.507Z,2.08
2022-08-03T02:21:56.374Z,4.03
2022-08-03T02:24:30.801Z,1.70
2022-08-03T02:27:01.357Z,2.45
2022-08-03T02:29:39.801Z,2.63
2022-08-03T02:32:15.809Z,2.33
2022-08-03T02:34:48.736Z,7.10
2022-08-03T02:37:21.084Z,2.35
2022-08-03T02:39:53.418Z,1.42
2022-08-03T02:42:24.571Z,2.15
2022-08-03T02:44:57.631Z,2.80
2022-08-03T02:47:53.255Z,2.72
2022-08-03T02:50:20.138Z,2.38
2022-08-03T02:52:50.113Z,3.40
2022-08-03T02:55:19.385Z,2.90
2022-08-03T02:57:49.236Z,2.15
2022-08-03T03:00:27.290Z,2.00
2022-08-03T03:03:00.474Z,2.60
2022-08-03T03:05:54.594Z,1.63
2022-08-03T03:08:28.350Z,2.00
2022-08-03T03:10:59.808Z,2.40
2022-08-03T03:13:29.762Z,3.05
2022-08-03T03:16:01.793Z,2.53
2022-08-03T03:18:33.581Z,1.40
2022-08-03T03:21:04.708Z,1.83
2022-08-03T03:26:03.112Z,2.53
2022-08-03T03:28:33.090Z,4.22
2022-08-03T03:31:02.720Z,3.55
2022-08-03T03:33:32.429Z,5.03
2022-08-03T03:36:01.108Z,2.47
2022-08-03T03:38:29.821Z,3.05
2022-08-03T03:40:58.278Z,2.20
2022-08-03T03:43:26.890Z,3.17
2022-08-03T03:45:56.959Z,2.40
2022-08-03T03:48:26.401Z,2.60
2022-08-03T03:50:57.289Z,3.95
2022-08-03T03:53:26.012Z,2.88
2022-08-03T03:55:59.774Z,3.08
2022-08-03T03:58:32.977Z,2.72
2022-08-03T04:01:01.844Z,9.97
2022-08-03T04:03:30.579Z,2.20
2022-08-03T04:06:17.713Z,1.95
2022-08-03T04:09:04.081Z,2.38
2022-08-03T04:11:40.128Z,5.07
2022-08-03T04:14:12.639Z,2.22
2022-08-03T04:16:45.665Z,2.78
2022-08-03T04:19:23.079Z,3.10
2022-08-03T04:21:57.668Z,3.28
2022-08-03T04:24:33.174Z,2.40
2022-08-03T04:27:04.395Z,3.70
2022-08-03T04:29:38.655Z,3.58
2022-08-03T04:32:16.879Z,5.00
2022-08-03T04:34:46.089Z,3.15
2022-08-03T04:37:26.907Z,6.85
2022-08-03T04:39:58.366Z,6.07
2022-08-03T04:42:28.102Z,4.05
2022-08-03T04:45:01.364Z,3.15
2022-08-03T04:47:32.298Z,5.00
2022-08-03T04:50:02.654Z,1.60
2022-08-03T04:52:32.646Z,4.10
2022-08-03T04:55:01.018Z,4.20
2022-08-03T04:57:29.452Z,8.88
2022-08-03T05:00:02.504Z,3.38
2022-08-03T05:02:32.876Z,4.18
2022-08-03T05:05:01.387Z,3.25
2022-08-03T05:07:36.582Z,2.92
2022-08-03T05:10:10.151Z,3.72
2022-08-03T05:12:46.481Z,3.13
2022-08-03T05:15:15.007Z,6.38
2022-08-03T05:17:43.340Z,5.75
2022-08-03T05:20:12.976Z,4.35
2022-08-03T05:22:42.664Z,4.13
2022-08-03T05:25:17.328Z,3.30
2022-08-03T05:27:48.220Z,2.53
2022-08-03T05:30:31.160Z,3.10
2022-08-03T05:33:03.700Z,4.40
2022-08-03T05:35:56.847Z,6.15
2022-08-03T05:38:28.826Z,4.43
2022-08-03T05:41:22.813Z,2.72
2022-08-03T05:43:51.379Z,4.07
2022-08-03T05:46:20.304Z,4.20
2022-08-03T05:48:48.625Z,4.25
2022-08-03T05:51:16.988Z,4.00
2022-08-03T05:53:46.917Z,5.40
2022-08-03T05:56:16.540Z,4.15
2022-08-03T05:58:47.135Z,3.53
2022-08-03T06:01:16.143Z,4.80
2022-08-03T06:03:44.530Z,4.65
2022-08-03T06:06:12.947Z,5.50
2022-08-03T06:08:42.576Z,3.20
2022-08-03T06:11:12.683Z,5.55
2022-08-03T06:13:41.253Z,3.47
2022-08-03T06:16:09.696Z,4.18
2022-08-03T06:18:38.817Z,3.22
2022-08-03T06:21:11.055Z,5.72
2022-08-03T06:23:53.179Z,4.28
2022-08-03T06:26:25.882Z,2.92
2022-08-03T06:28:54.971Z,3.35
2022-08-03T06:31:33.289Z,6.28
2022-08-03T06:34:32.323Z,3.67
2022-08-03T06:36:53.021Z,7.90
2022-08-03T06:39:23.444Z,3.55
2022-08-03T06:41:54.298Z,2.70
2022-08-03T06:44:22.672Z,3.90
2022-08-03T06:46:51.860Z,3.25
2022-08-03T06:49:20.279Z,7.20
2022-08-03T06:52:05.110Z,2.78
2022-08-03T06:54:36.884Z,5.82
2022-08-03T06:57:08.328Z,5.15
2022-08-03T07:00:07.598Z,3.15
2022-08-03T07:02:25.001Z,3.22
2022-08-03T07:04:57.148Z,2.25
2022-08-03T07:07:25.542Z,6.90
2022-08-03T07:09:57.635Z,2.67
2022-08-03T07:12:29.506Z,2.15
2022-08-03T07:15:02.308Z,2.80
2022-08-03T07:17:32.234Z,5.85
2022-08-03T07:20:02.252Z,3.30
2022-08-03T07:22:30.765Z,4.68
2022-08-03T07:24:59.319Z,2.70
2022-08-03T07:27:30.333Z,1.73
2022-08-03T07:29:59.902Z,3.72
2022-08-03T07:32:31.496Z,4.05
2022-08-03T07:35:01.204Z,2.97
2022-08-03T07:37:30.645Z,2.03
2022-08-03T07:39:59.300Z,2.65
2022-08-03T07:42:29.323Z,5.80
2022-08-03T07:44:58.860Z,2.08
2022-08-03T07:47:34.845Z,2.50
2022-08-03T07:50:08.585Z,1.90
2022-08-03T07:52:49.778Z,7.55
2022-08-03T07:55:19.981Z,2.17
2022-08-03T07:58:01.205Z,4.80
2022-08-03T08:00:29.735Z,6.10
2022-08-03T08:02:58.023Z,3.13
2022-08-03T08:05:26.735Z,1.95
2022-08-03T08:07:55.408Z,3.40
2022-08-03T08:10:24.422Z,2.10
2022-08-03T08:12:54.998Z,2.72
2022-08-03T08:15:23.329Z,2.00
2022-08-03T08:17:56.262Z,2.78
2022-08-03T08:20:31.372Z,2.90
2022-08-03T08:23:02.897Z,2.67
2022-08-03T08:25:33.949Z,2.53
2022-08-03T08:28:30.573Z,2.97
2022-08-03T08:30:52.791Z,4.10
2022-08-03T08:33:22.826Z,4.63
2022-08-03T08:35:54.283Z,14.80
2022-08-03T08:40:51.453Z,42.13
2022-08-03T08:43:21.061Z,30.13
2022-08-03T08:45:51.836Z,22.52
2022-08-03T08:48:24.296Z,10.05
2022-08-03T08:50:55.336Z,24.05
2022-08-03T08:53:27.186Z,7.43
2022-08-03T08:56:01.410Z,3.63
2022-08-03T08:58:37.180Z,4.57
2022-08-03T09:01:06.011Z,2.97
2022-08-03T09:03:35.250Z,4.00
2022-08-03T09:06:04.176Z,1.80
2022-08-03T09:08:33.953Z,5.00
2022-08-03T09:11:03.285Z,3.30
2022-08-03T09:13:34.219Z,1.85
2022-08-03T09:16:14.286Z,1.40
2022-08-03T09:18:43.341Z,5.68
2022-08-03T09:21:36.260Z,3.45
2022-08-03T09:24:16.374Z,5.78
2022-08-03T09:26:53.800Z,3.05
2022-08-03T09:29:24.412Z,4.88
2022-08-03T09:32:03.234Z,2.15
2022-08-03T09:34:32.050Z,1.58
2022-08-03T09:37:00.331Z,1.88
2022-08-03T09:39:41.508Z,2.15
2022-08-03T09:42:15.423Z,3.90
2022-08-03T09:44:47.331Z,1.77
2022-08-03T09:47:18.646Z,2.58
2022-08-03T09:50:02.229Z,3.95
2022-08-03T09:52:48.330Z,2.97
2022-08-03T09:56:31.634Z,4.15
2022-08-03T09:58:10.457Z,6.38
2022-08-03T10:00:57.076Z,3.17
2022-08-03T10:03:27.058Z,1.23
2022-08-03T10:05:59.791Z,1.13
2022-08-03T10:08:28.802Z,0.77
2022-08-03T10:10:58.760Z,0.88
2022-08-03T10:13:27.184Z,1.92
2022-08-03T10:16:23.118Z,2.30
2022-08-03T10:18:45.102Z,1.03
2022-08-03T10:21:20.134Z,1.13
2022-08-03T10:23:48.811Z,4.57
2022-08-03T10:26:23.967Z,1.52
2022-08-03T10:28:56.345Z,1.20
2022-08-03T10:31:27.672Z,4.57
2022-08-03T10:34:00.449Z,3.30
2022-08-03T10:36:32.086Z,3.05
2022-08-03T10:39:01.515Z,1.40
2022-08-03T10:41:37.424Z,4.55
2022-08-03T10:44:09.505Z,11.82
2022-08-03T10:46:44.979Z,3.53
2022-08-03T10:49:15.917Z,7.15
2022-08-03T10:51:46.544Z,10.80
2022-08-03T10:55:03.255Z,7.80
2022-08-03T10:57:47.474Z,3.38
2022-08-03T11:00:18.975Z,3.78
2022-08-03T11:03:10.241Z,3.28
2022-08-03T11:05:43.785Z,4.93
2022-08-03T11:08:30.371Z,3.55
2022-08-03T11:11:02.701Z,2.25
2022-08-03T11:13:33.885Z,1.20
2022-08-03T11:16:21.919Z,2.97
2022-08-03T11:19:00.918Z,1.48
2022-08-03T11:21:59.872Z,4.80
2022-08-03T11:25:00.174Z,4.05
2022-08-03T11:30:01.773Z,4.05
2022-08-03T11:32:59.750Z,5.47
2022-08-03T11:35:31.447Z,7.35
2022-08-03T11:38:08.442Z,5.25
2022-08-03T11:40:40.620Z,5.00
2022-08-03T11:43:10.518Z,13.35
2022-08-03T11:45:39.538Z,14.07
2022-08-03T11:48:17.187Z,6.68
2022-08-03T11:50:46.835Z,4.47
2022-08-03T11:53:18.173Z,25.00
2022-08-03T11:55:48.979Z,11.43
2022-08-03T11:58:58.107Z,21.25
2022-08-03T12:01:10.571Z,39.97
2022-08-03T12:03:38.899Z,40.80
2022-08-03T12:06:12.642Z,43.40
2022-08-03T12:08:42.854Z,43.40
2022-08-03T12:14:35.719Z,41.60
2022-08-03T12:16:32.019Z,43.53
2022-08-03T12:19:03.275Z,49.55
2022-08-03T12:21:33.164Z,55.88
2022-08-03T12:24:03.717Z,46.97
2022-08-03T12:26:45.407Z,58.35
2022-08-03T12:29:27.570Z,49.00
2022-08-03T12:31:56.441Z,78.43
2022-08-03T12:34:24.849Z,69.70
2022-08-03T12:37:01.033Z,70.80
2022-08-03T12:39:31.615Z,79.18
2022-08-03T12:42:00.014Z,83.50
2022-08-03T12:44:32.249Z,79.20
2022-08-03T12:47:01.789Z,67.10
2022-08-03T12:49:30.634Z,118.55
2022-08-03T12:52:05.507Z,112.80
2022-08-03T12:54:36.095Z,101.53
2022-08-03T12:57:06.741Z,84.45
2022-08-03T12:59:40.674Z,75.25
2022-08-03T13:02:17.767Z,100.10
2022-08-03T13:04:47.415Z,115.65
2022-08-03T13:07:19.523Z,100.93
2022-08-03T13:09:50.269Z,108.82
2022-08-03T13:12:21.158Z,111.00
2022-08-03T13:14:52.792Z,89.97
2022-08-03T13:17:21.674Z,106.93
2022-08-03T13:19:51.363Z,96.32
2022-08-03T13:22:23.290Z,109.67
2022-08-03T13:24:55.900Z,104.22
2022-08-03T13:28:04.796Z,90.00
2022-08-03T13:30:13.844Z,117.13
2022-08-03T13:32:49.325Z,106.85
2022-08-03T13:35:17.577Z,89.10
2022-08-03T13:37:48.857Z,77.75
2022-08-03T13:40:17.535Z,91.55
2022-08-03T13:42:46.109Z,108.28
2022-08-03T13:45:14.355Z,91.03
2022-08-03T13:47:42.642Z,98.32
2022-08-03T13:50:10.980Z,117.68
2022-08-03T13:52:39.362Z,87.45
2022-08-03T13:55:10.942Z,83.05
2022-08-03T13:58:11.927Z,119.47
2022-08-03T14:00:29.444Z,103.72
2022-08-03T14:03:15.349Z,118.53
2022-08-03T14:05:44.789Z,123.55
2022-08-03T14:08:13.652Z,136.70
2022-08-03T14:10:45.481Z,132.00
2022-08-03T14:13:17.753Z,131.52
2022-08-03T14:15:49.732Z,133.30
2022-08-03T14:18:27.844Z,116.88
2022-08-03T14:21:03.520Z,113.63
2022-08-03T14:23:34.484Z,123.43
2022-08-03T14:26:04.550Z,133.98
2022-08-03T14:28:32.992Z,126.25
2022-08-03T14:31:01.315Z,122.03
2022-08-03T14:33:29.677Z,108.10
2022-08-03T14:35:58.209Z,99.85
2022-08-03T14:38:26.782Z,93.45
2022-08-03T14:40:55.187Z,95.43
2022-08-03T14:43:25.044Z,99.88
2022-08-03T14:45:54.378Z,97.90
2022-08-03T14:50:29.739Z,89.05
2022-08-03T14:51:12.312Z,84.15
2022-08-03T14:53:41.663Z,72.78
2022-08-03T14:56:10.831Z,82.80
2022-08-03T14:58:40.839Z,78.88
2022-08-03T15:02:05.090Z,70.88
2022-08-03T15:03:57.586Z,61.10
2022-08-03T15:06:25.897Z,68.68
2022-08-03T15:11:42.983Z,66.50
2022-08-03T15:14:13.337Z,63.58
2022-08-03T15:16:43.331Z,67.97
2022-08-03T15:20:03.978Z,65.80
2022-08-03T15:22:00.984Z,65.40
2022-08-03T15:24:29.835Z,66.95
2022-08-03T15:26:58.241Z,65.78
2022-08-03T15:30:06.953Z,72.07
2022-08-03T15:32:16.761Z,69.45
2022-08-03T15:34:50.217Z,68.80
2022-08-03T15:37:20.803Z,67.00
2022-08-03T15:39:58.345Z,64.07
2022-08-03T15:42:30.229Z,63.38
2022-08-03T15:45:00.487Z,62.42
2022-08-03T15:49:57.301Z,55.40
2022-08-03T15:52:25.714Z,52.95
2022-08-03T15:54:54.123Z,49.20
2022-08-03T15:57:23.469Z,51.20
2022-08-03T15:59:51.955Z,48.00
2022-08-03T16:02:21.610Z,44.80
2022-08-03T16:04:49.951Z,43.63
2022-08-03T16:07:38.318Z,44.17
2022-08-03T16:10:07.819Z,40.10
2022-08-03T16:12:36.156Z,38.83
2022-08-03T16:15:04.794Z,36.17
2022-08-03T16:17:34.902Z,38.33
2022-08-03T16:20:07.493Z,53.90
2022-08-03T16:22:44.495Z,37.78
2022-08-03T16:25:18.510Z,36.85
2022-08-03T16:28:07.058Z,36.70
2022-08-03T16:30:35.840Z,37.10
2022-08-03T16:33:05.754Z,36.05
2022-08-03T16:35:34.203Z,31.63
2022-08-03T16:38:06.526Z,28.63
2022-08-03T16:40:37.925Z,30.33
2022-08-03T16:43:18.178Z,47.75
2022-08-03T16:45:47.575Z,37.22
2022-08-03T16:48:17.527Z,29.83
2022-08-03T16:50:46.440Z,30.35
2022-08-03T16:53:15.598Z,38.75
2022-08-03T16:55:53.211Z,33.40
2022-08-03T16:58:34.432Z,32.90
2022-08-03T17:01:23.488Z,26.85
2022-08-03T17:04:01.698Z,41.13
2022-08-03T17:06:34.230Z,47.05
2022-08-03T17:09:09.119Z,31.35
2022-08-03T17:11:44.113Z,39.08
2022-08-03T17:14:17.165Z,24.20
2022-08-03T17:16:52.414Z,24.60
2022-08-03T17:19:24.986Z,19.23
2022-08-03T17:22:04.017Z,25.63
2022-08-03T17:24:35.802Z,24.30
2022-08-03T17:28:42.241Z,24.33
2022-08-03T17:30:08.491Z,14.80
2022-08-03T17:32:42.792Z,19.52
2022-08-03T17:35:22.773Z,22.92
2022-08-03T17:38:02.647Z,16.70
2022-08-03T17:40:32.690Z,17.75
2022-08-03T17:44:12.831Z,16.42
2022-08-03T17:45:52.778Z,11.60
2022-08-03T17:48:25.230Z,9.13
2022-08-03T17:53:33.518Z,12.20
2022-08-03T17:56:44.414Z,13.63
2022-08-03T17:59:11.548Z,7.95
2022-08-03T18:02:12.294Z,5.97
2022-08-03T18:04:55.530Z,7.78
2022-08-03T18:07:41.171Z,3.35
2022-08-03T18:10:15.402Z,3.47
2022-08-03T18:12:53.569Z,6.05
2022-08-03T18:15:30.422Z,4.90
2022-08-03T18:18:10.481Z,7.60
2022-08-03T18:20:42.404Z,13.73
2022-08-03T18:23:24.801Z,30.98
2022-08-03T18:26:07.139Z,77.63
2022-08-03T18:28:39.408Z,65.10
2022-08-03T18:31:12.758Z,39.17
2022-08-03T18:34:17.079Z,39.17
2022-08-03T18:36:55.847Z,30.90
2022-08-03T18:39:26.436Z,17.27
2022-08-03T18:41:54.783Z,17.45
2022-08-03T18:44:53.276Z,21.20
2022-08-03T18:47:50.617Z,10.52
2022-08-03T18:50:31.209Z,14.68
2022-08-03T18:53:16.460Z,20.60
2022-08-03T18:56:01.940Z,20.15
2022-08-03T18:58:40.759Z,8.85
2022-08-03T19:01:57.908Z,13.73
2022-08-03T19:04:13.524Z,12.95
2022-08-03T19:06:45.879Z,19.50
2022-08-03T19:09:27.987Z,17.30
2022-08-03T19:12:12.796Z,13.77
2022-08-03T19:14:54.901Z,26.80
2022-08-03T19:17:29.466Z,207.30
2022-08-03T19:20:01.610Z,130.68
2022-08-03T19:22:30.289Z,32.60
2022-08-03T19:25:02.426Z,19.15
2022-08-03T19:27:33.324Z,24.48
2022-08-03T19:30:19.978Z,11.80
2022-08-03T19:32:54.971Z,24.02
2022-08-03T19:35:51.755Z,19.83
2022-08-03T19:38:12.952Z,14.57
2022-08-03T19:40:50.963Z,11.40
2022-08-03T19:43:25.933Z,14.63
2022-08-03T19:46:06.938Z,9.95
2022-08-03T19:48:37.018Z,19.75
2022-08-03T19:51:12.209Z,17.80
2022-08-03T19:53:44.992Z,13.13
2022-08-03T19:56:14.376Z,14.73
2022-08-03T19:58:45.841Z,11.68
2022-08-03T20:01:21.780Z,16.58
2022-08-03T20:03:51.586Z,14.57
2022-08-03T20:06:23.638Z,10.77
2022-08-03T20:08:52.816Z,12.13
2022-08-03T20:11:28.878Z,12.93
2022-08-03T20:13:59.691Z,34.25
2022-08-03T20:18:56.298Z,13.32
2022-08-03T20:21:26.159Z,14.50
2022-08-03T20:24:01.978Z,10.13
2022-08-03T20:26:33.604Z,12.70
2022-08-03T20:29:10.092Z,12.02
2022-08-03T20:31:38.689Z,11.27
2022-08-03T20:34:07.626Z,11.05
2022-08-03T20:36:38.193Z,10.77
2022-08-03T20:39:07.711Z,11.27
2022-08-03T20:41:36.863Z,10.70
2022-08-03T20:44:07.989Z,10.75
2022-08-03T20:46:50.231Z,9.15
2022-08-03T20:49:25.038Z,9.77
2022-08-03T20:51:55.076Z,8.13
2022-08-03T20:54:29.402Z,8.23
2022-08-03T20:57:03.755Z,10.00
2022-08-03T20:59:50.641Z,8.65
2022-08-03T21:02:28.912Z,7.50
2022-08-03T21:05:03.424Z,15.88
2022-08-03T21:08:04.301Z,8.02
2022-08-03T21:10:32.010Z,8.25
2022-08-03T21:13:16.201Z,8.27
2022-08-03T21:16:12.835Z,8.35
2022-08-03T21:18:45.895Z,7.82
2022-08-03T21:21:17.004Z,6.47
2022-08-03T21:23:48.774Z,7.70
2022-08-03T21:26:19.696Z,6.03
2022-08-03T21:28:49.481Z,8.10
2022-08-03T21:31:24.847Z,8.02
2022-08-03T21:33:56.629Z,8.15
2022-08-03T21:38:56.160Z,7.40
2022-08-03T21:41:26.170Z,7.50
2022-08-03T21:43:54.724Z,7.25
2022-08-03T21:46:25.195Z,8.00
2022-08-03T21:50:07.321Z,7.20
2022-08-03T21:51:50.555Z,7.22
2022-08-03T21:54:21.544Z,6.80
2022-08-03T21:56:52.768Z,6.95
2022-08-03T21:59:23.234Z,7.18
2022-08-03T22:01:55.377Z,5.90
2022-08-03T22:04:53.366Z,5.05
2022-08-03T22:07:16.380Z,5.88
2022-08-03T22:09:50.092Z,7.43
2022-08-03T22:12:23.358Z,7.15
2022-08-03T22:14:53.599Z,7.13
2022-08-03T22:17:53.646Z,4.50
2022-08-03T22:20:21.918Z,5.63
2022-08-03T22:22:56.468Z,5.95
2022-08-03T22:25:29.963Z,6.90
2022-08-03T22:28:00.188Z,3.53
2022-08-03T22:30:29.096Z,4.78
2022-08-03T22:32:59.147Z,5.20
2022-08-03T22:35:28.566Z,5.20
2022-08-03T22:38:00.030Z,5.35
2022-08-03T22:40:29.188Z,5.35
2022-08-03T22:42:58.950Z,6.10
2022-08-03T22:46:06.817Z,5.78
2022-08-03T22:48:18.241Z,5.13
2022-08-03T22:50:47.292Z,6.03
2022-08-03T22:53:19.538Z,6.22
2022-08-03T22:55:49.824Z,4.72
2022-08-03T22:58:18.430Z,4.30
2022-08-03T23:00:53.748Z,4.97
2022-08-03T23:03:58.721Z,5.35
2022-08-03T23:06:20.657Z,5.10
2022-08-03T23:08:51.051Z,4.72
2022-08-03T23:11:20.399Z,5.32
2022-08-03T23:13:51.098Z,6.28
2022-08-03T23:16:28.554Z,4.75
2022-08-03T23:19:16.736Z,4.93
2022-08-03T23:24:32.162Z,4.60
2022-08-03T23:27:00.819Z,8.50
2022-08-03T23:29:31.573Z,4.50
2022-08-03T23:34:49.743Z,3.72
2022-08-03T23:37:20.006Z,3.63
2022-08-03T23:39:50.311Z,4.43
2022-08-03T23:42:20.598Z,5.18
2022-08-03T23:44:54.663Z,3.35
2022-08-03T23:47:23.602Z,3.35
2022-08-03T23:49:53.585Z,3.33
2022-08-03T23:52:33.985Z,3.22
2022-08-03T23:55:18.229Z,3.30
2022-08-03T23:58:02.743Z,8.75
